createdAt,value
2019-03-17T00:02:21.971Z,3.35
2019-03-17T00:04:52.306Z,9.15
2019-03-17T00:07:22.668Z,3.02
2019-03-17T00:09:53.113Z,5.67
2019-03-17T00:12:23.436Z,5.22
2019-03-17T00:15:04.651Z,5.78
2019-03-17T00:17:25.912Z,7.12
2019-03-17T00:19:56.404Z,4.47
2019-03-17T00:22:26.746Z,6.22
2019-03-17T00:25:08.490Z,5.50
2019-03-17T00:27:29.269Z,7.33
2019-03-17T00:29:59.652Z,5.05
2019-03-17T00:32:30.040Z,4.95
2019-03-17T00:35:00.415Z,2.85
2019-03-17T00:37:31.035Z,7.67
2019-03-17T00:40:01.471Z,9.60
2019-03-17T00:42:31.811Z,7.30
2019-03-17T00:45:02.190Z,4.28
2019-03-17T00:47:32.567Z,4.25
2019-03-17T00:50:03.042Z,4.58
2019-03-17T00:52:33.421Z,9.28
2019-03-17T00:55:03.828Z,6.42
2019-03-17T00:57:34.183Z,2.98
2019-03-17T01:00:05.064Z,1.47
2019-03-17T01:02:35.427Z,4.47
2019-03-17T01:05:06.358Z,6.33
2019-03-17T01:07:36.730Z,8.75
2019-03-17T01:10:07.285Z,7.92
2019-03-17T01:12:37.641Z,7.05
2019-03-17T01:15:08.645Z,3.95
2019-03-17T01:17:39.054Z,8.70
2019-03-17T01:20:09.567Z,7.55
2019-03-17T01:22:39.901Z,6.00
2019-03-17T01:25:11.038Z,6.05
2019-03-17T01:27:41.440Z,4.62
2019-03-17T01:30:11.967Z,9.23
2019-03-17T01:32:42.347Z,12.18
2019-03-17T01:35:12.749Z,4.28
2019-03-17T01:37:43.155Z,7.22
2019-03-17T01:40:13.532Z,7.85
2019-03-17T01:42:43.882Z,4.78
2019-03-17T01:45:14.258Z,5.35
2019-03-17T01:47:44.715Z,10.70
2019-03-17T01:50:15.090Z,11.93
2019-03-17T01:52:45.401Z,5.53
2019-03-17T01:55:15.755Z,6.92
2019-03-17T01:57:46.117Z,4.72
2019-03-17T02:00:16.574Z,10.78
2019-03-17T02:02:47.010Z,15.00
2019-03-17T02:05:22.386Z,5.83
2019-03-17T02:07:49.457Z,10.90
2019-03-17T02:10:19.810Z,5.72
2019-03-17T02:12:50.172Z,5.72
2019-03-17T02:15:20.493Z,9.40
2019-03-17T02:17:50.865Z,9.70
2019-03-17T02:20:21.210Z,11.28
2019-03-17T02:22:51.542Z,13.70
2019-03-17T02:25:21.932Z,8.25
2019-03-17T02:27:52.255Z,12.18
2019-03-17T02:30:23.556Z,10.20
2019-03-17T02:32:53.887Z,10.45
2019-03-17T02:35:37.990Z,13.95
2019-03-17T02:37:56.358Z,9.25
2019-03-17T02:40:26.705Z,7.85
2019-03-17T02:42:57.090Z,12.98
2019-03-17T02:45:27.435Z,6.85
2019-03-17T02:47:57.837Z,6.60
2019-03-17T02:50:28.214Z,8.53
2019-03-17T02:52:58.566Z,12.53
2019-03-17T02:55:28.884Z,8.88
2019-03-17T02:57:59.321Z,11.48
2019-03-17T03:00:29.685Z,7.42
2019-03-17T03:03:00.077Z,9.75
2019-03-17T03:05:30.485Z,9.20
2019-03-17T03:08:00.884Z,10.18
2019-03-17T03:10:32.109Z,11.35
2019-03-17T03:13:03.045Z,14.65
2019-03-17T03:15:33.377Z,14.10
2019-03-17T03:18:03.706Z,9.58
2019-03-17T03:20:34.091Z,12.18
2019-03-17T03:23:04.419Z,20.17
2019-03-17T03:25:34.828Z,14.03
2019-03-17T03:28:05.180Z,17.55
2019-03-17T03:30:35.585Z,18.90
2019-03-17T03:33:05.917Z,14.05
2019-03-17T03:35:36.267Z,9.55
2019-03-17T03:38:06.610Z,4.10
2019-03-17T03:40:37.026Z,2.17
2019-03-17T03:43:07.375Z,2.47
2019-03-17T03:45:37.761Z,3.30
2019-03-17T03:48:08.098Z,4.37
2019-03-17T03:50:38.466Z,2.37
2019-03-17T03:53:08.877Z,4.87
2019-03-17T03:55:42.102Z,2.72
2019-03-17T03:58:11.294Z,6.62
2019-03-17T04:00:41.643Z,4.10
2019-03-17T04:03:11.978Z,5.47
2019-03-17T04:05:42.332Z,4.22
2019-03-17T04:08:12.657Z,3.25
2019-03-17T04:10:43.001Z,4.05
2019-03-17T04:13:13.373Z,5.03
2019-03-17T04:15:43.737Z,4.40
2019-03-17T04:18:14.053Z,2.95
2019-03-17T04:20:44.516Z,6.37
2019-03-17T04:23:14.857Z,3.52
2019-03-17T04:25:45.178Z,6.15
2019-03-17T04:28:15.615Z,6.40
2019-03-17T04:30:45.955Z,4.47
2019-03-17T04:33:16.350Z,6.25
2019-03-17T04:35:46.725Z,7.95
2019-03-17T04:38:17.097Z,4.67
2019-03-17T04:40:47.436Z,5.90
2019-03-17T04:43:17.807Z,9.18
2019-03-17T04:45:48.191Z,4.72
2019-03-17T04:48:18.561Z,7.17
2019-03-17T04:50:48.932Z,6.25
2019-03-17T04:53:19.262Z,8.73
2019-03-17T04:55:49.656Z,7.37
2019-03-17T04:58:20.080Z,7.03
2019-03-17T05:00:50.470Z,8.38
2019-03-17T05:03:20.807Z,11.90
2019-03-17T05:05:51.176Z,5.78
2019-03-17T05:08:21.550Z,3.27
2019-03-17T05:10:51.979Z,10.18
2019-03-17T05:13:22.384Z,6.85
2019-03-17T05:15:52.802Z,6.78
2019-03-17T05:18:23.204Z,8.90
2019-03-17T05:20:53.610Z,6.72
2019-03-17T05:23:23.953Z,7.12
2019-03-17T05:25:54.358Z,10.43
2019-03-17T05:28:24.687Z,8.70
2019-03-17T05:30:55.037Z,8.15
2019-03-17T05:33:25.435Z,12.03
2019-03-17T05:35:55.853Z,8.43
2019-03-17T05:38:26.280Z,11.33
2019-03-17T05:40:56.743Z,11.63
2019-03-17T05:43:27.072Z,9.63
2019-03-17T05:45:57.754Z,11.53
2019-03-17T05:48:28.045Z,9.18
2019-03-17T05:50:58.457Z,9.33
2019-03-17T05:53:28.834Z,9.60
2019-03-17T05:55:59.218Z,10.50
2019-03-17T05:58:29.595Z,11.25
2019-03-17T06:00:59.926Z,8.35
2019-03-17T06:03:30.263Z,9.88
2019-03-17T06:06:00.652Z,6.67
2019-03-17T06:08:33.553Z,8.80
2019-03-17T06:11:03.083Z,7.12
2019-03-17T06:13:33.540Z,13.83
2019-03-17T06:16:03.875Z,3.55
2019-03-17T06:18:34.247Z,6.08
2019-03-17T06:21:04.859Z,6.47
2019-03-17T06:23:35.225Z,12.10
2019-03-17T06:26:05.557Z,8.58
2019-03-17T06:28:35.925Z,4.80
2019-03-17T06:31:06.249Z,5.62
2019-03-17T06:33:36.608Z,7.45
2019-03-17T06:36:07.144Z,6.05
2019-03-17T06:38:37.507Z,9.88
2019-03-17T06:41:07.920Z,6.47
2019-03-17T06:43:38.293Z,6.00
2019-03-17T06:46:08.644Z,6.05
2019-03-17T06:48:39.019Z,5.10
2019-03-17T06:51:09.414Z,4.72
2019-03-17T06:53:39.754Z,5.72
2019-03-17T06:56:10.120Z,7.30
2019-03-17T06:58:40.544Z,6.70
2019-03-17T07:01:10.928Z,3.80
2019-03-17T07:03:41.240Z,8.53
2019-03-17T07:06:11.617Z,7.80
2019-03-17T07:08:42.225Z,6.22
2019-03-17T07:11:12.902Z,7.40
2019-03-17T07:13:43.450Z,7.40
2019-03-17T07:16:13.939Z,7.03
2019-03-17T07:18:44.441Z,6.78
2019-03-17T07:21:15.011Z,3.65
2019-03-17T07:23:45.571Z,6.37
2019-03-17T07:26:16.179Z,10.28
2019-03-17T07:28:46.705Z,7.62
2019-03-17T07:31:18.390Z,7.85
2019-03-17T07:33:48.847Z,8.73
2019-03-17T07:36:19.648Z,7.08
2019-03-17T07:38:50.336Z,2.50
2019-03-17T07:41:21.118Z,6.53
2019-03-17T07:43:51.523Z,5.17
2019-03-17T07:46:22.336Z,5.42
2019-03-17T07:48:53.234Z,12.15
2019-03-17T07:51:23.823Z,3.95
2019-03-17T07:53:54.475Z,8.40
2019-03-17T07:56:44.163Z,8.90
2019-03-17T07:59:15.038Z,7.83
2019-03-17T08:01:45.768Z,6.20
2019-03-17T08:04:16.283Z,4.28
2019-03-17T08:06:46.748Z,5.90
2019-03-17T08:09:17.284Z,4.10
2019-03-17T08:11:47.866Z,4.92
2019-03-17T08:14:18.556Z,4.85
2019-03-17T08:16:49.415Z,5.55
2019-03-17T08:19:20.007Z,6.83
2019-03-17T08:21:50.949Z,4.05
2019-03-17T08:24:21.436Z,6.03
2019-03-17T08:26:52.168Z,8.30
2019-03-17T08:29:22.557Z,8.28
2019-03-17T08:31:53.029Z,4.22
2019-03-17T08:34:23.409Z,8.78
2019-03-17T08:36:53.760Z,4.67
2019-03-17T08:39:24.107Z,4.33
2019-03-17T08:41:54.520Z,7.08
2019-03-17T08:44:24.917Z,3.27
2019-03-17T08:46:55.238Z,8.53
2019-03-17T08:49:25.726Z,6.35
2019-03-17T08:51:56.092Z,3.83
2019-03-17T08:54:27.677Z,5.47
2019-03-17T08:56:58.048Z,2.77
2019-03-17T08:59:28.392Z,4.30
2019-03-17T09:01:58.771Z,4.28
2019-03-17T09:04:29.149Z,6.10
2019-03-17T09:07:01.491Z,3.08
2019-03-17T09:09:32.002Z,2.95
2019-03-17T09:12:02.357Z,1.62
2019-03-17T09:14:32.721Z,3.30
2019-03-17T09:17:13.640Z,2.40
2019-03-17T09:19:35.231Z,3.25
2019-03-17T09:22:05.564Z,1.98
2019-03-17T09:24:35.928Z,3.92
2019-03-17T09:27:06.375Z,8.13
2019-03-17T09:29:36.728Z,2.20
2019-03-17T09:32:07.075Z,3.12
2019-03-17T09:34:37.458Z,2.37
2019-03-17T09:37:07.829Z,3.02
2019-03-17T09:39:38.178Z,2.62
2019-03-17T09:42:11.063Z,5.67
2019-03-17T09:44:40.709Z,3.83
2019-03-17T09:47:11.089Z,4.85
2019-03-17T09:49:41.462Z,4.55
2019-03-17T09:52:11.837Z,3.17
2019-03-17T09:54:42.297Z,4.30
2019-03-17T09:57:12.727Z,3.37
2019-03-17T09:59:43.206Z,4.95
2019-03-17T10:02:13.589Z,1.22
2019-03-17T10:04:44.025Z,4.58
2019-03-17T10:07:14.352Z,5.05
2019-03-17T10:09:44.769Z,1.90
2019-03-17T10:12:15.146Z,2.12
2019-03-17T10:14:45.521Z,4.47
2019-03-17T10:17:15.898Z,4.45
2019-03-17T10:19:46.305Z,4.10
2019-03-17T10:22:16.692Z,5.20
2019-03-17T10:24:47.071Z,2.52
2019-03-17T10:27:17.659Z,1.05
2019-03-17T10:29:48.036Z,3.80
2019-03-17T10:32:18.390Z,3.12
2019-03-17T10:34:48.758Z,3.02
2019-03-17T10:37:19.171Z,2.08
2019-03-17T10:39:49.536Z,2.87
2019-03-17T10:42:19.979Z,1.60
2019-03-17T10:44:50.378Z,6.50
2019-03-17T10:47:20.766Z,5.03
2019-03-17T10:49:51.199Z,3.22
2019-03-17T10:52:22.011Z,2.58
2019-03-17T10:54:52.375Z,3.70
2019-03-17T10:57:22.774Z,3.65
2019-03-17T10:59:53.158Z,7.65
2019-03-17T11:02:23.564Z,7.65
2019-03-17T11:04:53.962Z,3.40
2019-03-17T11:07:24.337Z,2.20
2019-03-17T11:09:54.705Z,4.35
2019-03-17T11:12:25.220Z,1.82
2019-03-17T11:14:55.581Z,2.80
2019-03-17T11:17:26.022Z,2.20
2019-03-17T11:19:56.562Z,1.72
2019-03-17T11:22:26.934Z,3.17
2019-03-17T11:24:57.287Z,6.05
2019-03-17T11:27:27.774Z,3.17
2019-03-17T11:29:58.540Z,4.60
2019-03-17T11:32:29.030Z,1.02
2019-03-17T11:34:59.412Z,6.42
2019-03-17T11:37:30.786Z,3.60
2019-03-17T11:40:01.445Z,2.98
2019-03-17T11:42:31.841Z,4.85
2019-03-17T11:45:02.175Z,3.77
2019-03-17T11:47:32.550Z,5.92
2019-03-17T11:50:02.981Z,3.75
2019-03-17T11:52:33.359Z,2.83
2019-03-17T11:55:03.875Z,3.98
2019-03-17T11:57:34.279Z,2.55
2019-03-17T12:00:05.210Z,1.22
2019-03-17T12:02:35.647Z,2.20
2019-03-17T12:05:06.570Z,3.72
2019-03-17T12:07:37.022Z,1.70
2019-03-17T12:10:09.357Z,1.80
2019-03-17T12:12:39.779Z,3.70
2019-03-17T12:15:13.037Z,3.22
2019-03-17T12:17:43.417Z,6.92
2019-03-17T12:20:14.029Z,3.30
2019-03-17T12:22:44.492Z,1.80
2019-03-17T12:25:15.055Z,3.72
2019-03-17T12:27:45.508Z,2.15
2019-03-17T12:30:22.564Z,4.17
2019-03-17T12:32:53.249Z,1.20
2019-03-17T12:35:23.688Z,2.90
2019-03-17T12:37:54.069Z,4.22
2019-03-17T12:40:24.573Z,1.92
2019-03-17T12:42:55.033Z,3.50
2019-03-17T12:45:25.390Z,2.87
2019-03-17T12:47:55.827Z,4.20
2019-03-17T12:50:26.188Z,3.12
2019-03-17T12:52:56.687Z,1.62
2019-03-17T12:55:27.095Z,1.57
2019-03-17T12:57:57.655Z,1.75
2019-03-17T13:00:28.144Z,2.55
2019-03-17T13:02:58.635Z,2.12
2019-03-17T13:05:28.989Z,1.90
2019-03-17T13:07:59.342Z,3.87
2019-03-17T13:10:30.177Z,0.72
2019-03-17T13:13:00.978Z,0.80
2019-03-17T13:15:31.349Z,2.62
2019-03-17T13:18:01.765Z,3.08
2019-03-17T13:20:32.088Z,3.45
2019-03-17T13:23:02.445Z,2.52
2019-03-17T13:25:32.854Z,3.00
2019-03-17T13:28:03.244Z,4.58
2019-03-17T13:30:33.610Z,2.90
2019-03-17T13:33:04.108Z,1.85
2019-03-17T13:35:34.430Z,3.30
2019-03-17T13:38:04.835Z,3.42
2019-03-17T13:40:35.285Z,4.55
2019-03-17T13:43:05.689Z,3.60
2019-03-17T13:45:36.050Z,0.75
2019-03-17T13:48:06.503Z,0.95
2019-03-17T13:50:36.882Z,1.45
2019-03-17T13:53:07.262Z,1.20
2019-03-17T13:55:37.696Z,2.65
2019-03-17T13:58:08.233Z,0.93
2019-03-17T14:00:38.600Z,3.58
2019-03-17T14:03:09.015Z,2.05
2019-03-17T14:05:39.411Z,2.40
2019-03-17T14:08:09.778Z,1.10
2019-03-17T14:10:41.620Z,1.75
2019-03-17T14:13:12.179Z,0.20
2019-03-17T14:15:42.644Z,2.12
2019-03-17T14:18:13.031Z,1.22
2019-03-17T14:20:43.374Z,1.30
2019-03-17T14:23:13.726Z,3.02
2019-03-17T14:25:44.169Z,1.90
2019-03-17T14:28:14.567Z,1.45
2019-03-17T14:30:46.398Z,1.37
2019-03-17T14:33:16.889Z,2.70
2019-03-17T14:35:47.255Z,0.90
2019-03-17T14:38:17.657Z,1.15
2019-03-17T14:40:53.261Z,0.40
2019-03-17T14:43:20.545Z,0.62
2019-03-17T14:45:50.884Z,4.12
2019-03-17T14:48:21.708Z,1.17
2019-03-17T14:50:52.100Z,0.62
2019-03-17T14:53:22.471Z,3.75
2019-03-17T14:55:52.841Z,2.37
2019-03-17T14:58:23.332Z,0.62
2019-03-17T15:00:53.762Z,1.75
2019-03-17T15:03:24.136Z,0.68
2019-03-17T15:05:54.699Z,2.45
2019-03-17T15:08:25.131Z,4.40
2019-03-17T15:11:05.398Z,0.55
2019-03-17T15:13:27.763Z,1.65
2019-03-17T15:16:02.689Z,0.30
2019-03-17T15:18:30.236Z,0.42
2019-03-17T15:21:00.653Z,3.20
2019-03-17T15:23:31.044Z,0.85
2019-03-17T15:26:01.454Z,0.88
2019-03-17T15:28:31.797Z,0.40
2019-03-17T15:31:11.459Z,1.22
2019-03-17T15:33:34.338Z,3.80
2019-03-17T15:36:04.692Z,0.95
2019-03-17T15:38:35.075Z,0.65
2019-03-17T15:41:17.605Z,4.75
2019-03-17T15:43:37.697Z,0.80
2019-03-17T15:46:07.998Z,3.33
2019-03-17T15:48:38.364Z,1.10
2019-03-17T15:51:19.497Z,1.02
2019-03-17T15:53:40.812Z,0.30
2019-03-17T15:56:11.302Z,3.47
2019-03-17T15:58:41.637Z,3.33
2019-03-17T16:01:12.023Z,3.58
2019-03-17T16:03:42.430Z,4.35
2019-03-17T16:06:12.857Z,1.40
2019-03-17T16:08:43.214Z,2.17
2019-03-17T16:11:13.628Z,2.22
2019-03-17T16:13:44.048Z,2.20
2019-03-17T16:16:14.519Z,0.80
2019-03-17T16:18:44.982Z,0.60
2019-03-17T16:21:15.358Z,0.55
2019-03-17T16:23:46.152Z,1.95
2019-03-17T16:26:16.614Z,2.98
2019-03-17T16:28:47.059Z,0.98
2019-03-17T16:31:17.438Z,0.65
2019-03-17T16:33:47.886Z,0.28
2019-03-17T16:36:18.346Z,0.90
2019-03-17T16:38:48.698Z,1.20
2019-03-17T16:41:19.115Z,0.85
2019-03-17T16:43:49.525Z,0.78
2019-03-17T16:46:20.019Z,1.95
2019-03-17T16:48:50.515Z,0.35
2019-03-17T16:51:21.025Z,2.92
2019-03-17T16:53:51.442Z,0.75
2019-03-17T16:56:22.009Z,1.15
2019-03-17T16:58:52.447Z,3.70
2019-03-17T17:01:22.924Z,1.80
2019-03-17T17:03:53.414Z,4.90
2019-03-17T17:06:24.009Z,2.90
2019-03-17T17:08:54.409Z,3.77
2019-03-17T17:11:24.926Z,1.30
2019-03-17T17:13:55.407Z,3.67
2019-03-17T17:16:26.063Z,2.30
2019-03-17T17:18:56.424Z,1.25
2019-03-17T17:21:26.888Z,3.80
2019-03-17T17:23:57.305Z,1.80
2019-03-17T17:26:36.566Z,4.87
2019-03-17T17:28:59.931Z,2.92
2019-03-17T17:31:30.294Z,3.92
2019-03-17T17:34:00.708Z,3.70
2019-03-17T17:36:31.189Z,1.75
2019-03-17T17:39:01.688Z,2.95
2019-03-17T17:41:32.105Z,2.60
2019-03-17T17:44:02.535Z,2.83
2019-03-17T17:46:32.974Z,1.42
2019-03-17T17:49:03.353Z,3.75
2019-03-17T17:51:33.813Z,5.85
2019-03-17T17:54:04.159Z,4.50
2019-03-17T17:56:34.533Z,2.70
2019-03-17T17:59:04.888Z,2.15
2019-03-17T18:01:35.272Z,2.58
2019-03-17T18:04:05.677Z,6.40
2019-03-17T18:06:36.052Z,4.58
2019-03-17T18:09:09.007Z,3.95
2019-03-17T18:11:40.131Z,3.12
2019-03-17T18:14:12.985Z,4.90
2019-03-17T18:16:43.431Z,3.40
2019-03-17T18:19:13.932Z,4.42
2019-03-17T18:21:44.342Z,7.83
2019-03-17T18:24:14.800Z,4.70
2019-03-17T18:26:45.245Z,5.17
2019-03-17T18:29:15.648Z,5.03
2019-03-17T18:31:46.061Z,7.25
2019-03-17T18:34:16.498Z,4.90
2019-03-17T18:36:46.912Z,3.35
2019-03-17T18:39:17.308Z,3.65
2019-03-17T18:41:47.786Z,4.58
2019-03-17T18:44:18.656Z,2.12
2019-03-17T18:46:48.998Z,2.12
2019-03-17T18:49:19.689Z,6.90
2019-03-17T18:51:50.144Z,3.72
2019-03-17T18:54:20.555Z,2.47
2019-03-17T18:56:51.169Z,2.83
2019-03-17T18:59:21.544Z,1.62
2019-03-17T19:01:52.039Z,6.10
2019-03-17T19:04:22.439Z,0.72
2019-03-17T19:06:52.959Z,0.50
2019-03-17T19:09:23.423Z,2.77
2019-03-17T19:11:53.898Z,3.77
2019-03-17T19:14:24.283Z,3.60
2019-03-17T19:16:54.651Z,3.95
2019-03-17T19:19:25.069Z,6.87
2019-03-17T19:21:55.421Z,7.47
2019-03-17T19:24:25.806Z,2.87
2019-03-17T19:26:56.252Z,1.30
2019-03-17T19:29:26.576Z,1.17
2019-03-17T19:31:56.900Z,4.78
2019-03-17T19:34:27.324Z,1.95
2019-03-17T19:36:57.647Z,1.47
2019-03-17T19:39:27.982Z,0.30
2019-03-17T19:41:58.424Z,2.35
2019-03-17T19:44:28.937Z,4.33
2019-03-17T19:46:59.348Z,0.72
2019-03-17T19:49:30.027Z,1.55
2019-03-17T19:52:00.644Z,2.30
2019-03-17T19:54:31.172Z,3.20
2019-03-17T19:57:03.050Z,3.72
2019-03-17T19:59:33.956Z,2.65
2019-03-17T20:02:04.406Z,1.98
2019-03-17T20:04:35.481Z,3.90
2019-03-17T20:07:06.577Z,1.87
2019-03-17T20:09:36.950Z,0.90
2019-03-17T20:12:07.371Z,4.75
2019-03-17T20:14:37.730Z,2.40
2019-03-17T20:17:08.130Z,3.15
2019-03-17T20:19:38.521Z,3.08
2019-03-17T20:22:08.869Z,3.12
2019-03-17T20:24:39.292Z,2.52
2019-03-17T20:27:09.724Z,7.17
2019-03-17T20:29:40.116Z,3.90
2019-03-17T20:32:10.486Z,2.77
2019-03-17T20:34:40.888Z,3.83
2019-03-17T20:37:11.314Z,2.80
2019-03-17T20:39:41.659Z,3.10
2019-03-17T20:42:12.039Z,4.50
2019-03-17T20:44:42.374Z,5.22
2019-03-17T20:47:12.734Z,4.53
2019-03-17T20:49:43.148Z,2.72
2019-03-17T20:52:13.516Z,4.95
2019-03-17T20:54:43.865Z,4.85
2019-03-17T20:57:14.245Z,5.85
2019-03-17T20:59:44.612Z,6.35
2019-03-17T21:02:14.951Z,4.62
2019-03-17T21:04:45.397Z,5.92
2019-03-17T21:07:15.786Z,7.12
2019-03-17T21:09:46.247Z,6.62
2019-03-17T21:12:16.639Z,3.80
2019-03-17T21:14:47.047Z,5.22
2019-03-17T21:17:17.430Z,8.80
2019-03-17T21:19:47.846Z,7.65
2019-03-17T21:22:18.189Z,7.28
2019-03-17T21:24:48.537Z,3.58
2019-03-17T21:27:18.954Z,4.10
2019-03-17T21:29:49.324Z,4.35
2019-03-17T21:32:19.662Z,8.38
2019-03-17T21:34:50.091Z,4.20
2019-03-17T21:37:20.477Z,7.08
2019-03-17T21:39:50.926Z,5.42
2019-03-17T21:42:21.331Z,5.45
2019-03-17T21:44:51.734Z,3.62
2019-03-17T21:47:22.064Z,9.35
2019-03-17T21:49:52.422Z,6.25
2019-03-17T21:52:22.765Z,7.50
2019-03-17T21:54:53.316Z,10.18
2019-03-17T21:57:23.668Z,5.12
2019-03-17T21:59:54.203Z,7.92
2019-03-17T22:02:24.602Z,5.45
2019-03-17T22:04:55.235Z,7.03
2019-03-17T22:07:25.656Z,8.65
2019-03-17T22:09:56.084Z,9.13
2019-03-17T22:12:26.425Z,8.80
2019-03-17T22:14:56.805Z,5.70
2019-03-17T22:17:27.186Z,5.85
2019-03-17T22:19:57.588Z,6.78
2019-03-17T22:22:27.947Z,8.03
2019-03-17T22:24:58.305Z,6.67
2019-03-17T22:27:28.706Z,9.30
2019-03-17T22:29:59.088Z,4.83
2019-03-17T22:32:29.427Z,4.40
2019-03-17T22:34:59.978Z,6.87
2019-03-17T22:37:30.346Z,5.83
2019-03-17T22:40:00.767Z,6.90
2019-03-17T22:42:31.182Z,8.83
2019-03-17T22:45:01.533Z,7.65
2019-03-17T22:47:31.876Z,7.25
2019-03-17T22:50:02.334Z,4.80
2019-03-17T22:52:32.830Z,7.45
2019-03-17T22:55:03.173Z,4.92
2019-03-17T22:57:33.576Z,5.25
2019-03-17T23:00:04.878Z,5.78
2019-03-17T23:02:35.265Z,11.63
2019-03-17T23:05:05.805Z,6.22
2019-03-17T23:07:36.261Z,8.90
2019-03-17T23:10:08.408Z,5.10
2019-03-17T23:12:38.877Z,5.90
2019-03-17T23:15:09.377Z,5.50
2019-03-17T23:17:39.720Z,4.03
2019-03-17T23:20:10.816Z,9.25
2019-03-17T23:22:41.216Z,5.45
2019-03-17T23:25:11.828Z,4.28
2019-03-17T23:27:42.253Z,6.55
2019-03-17T23:30:12.950Z,9.38
2019-03-17T23:32:43.362Z,11.97
2019-03-17T23:35:13.791Z,5.97
2019-03-17T23:37:44.183Z,6.67
2019-03-17T23:40:14.858Z,7.83
2019-03-17T23:42:45.278Z,4.85
2019-03-17T23:45:15.990Z,8.38
2019-03-17T23:47:46.418Z,6.90
2019-03-17T23:50:16.958Z,6.87
2019-03-17T23:52:47.368Z,8.03
2019-03-17T23:55:17.731Z,4.03
2019-03-17T23:57:48.121Z,6.92
